sensor_id;sensor_type;location;lat;lon;timestamp;P1;durP1;ratioP1;P2;durP2;ratioP2
56391;SDS011;42289;53.582;9.714;2022-09-30T00:01:31;13.45;;;8.30;;
56391;SDS011;42289;53.582;9.714;2022-09-30T00:03:58;12.73;;;8.32;;
56391;SDS011;42289;53.582;9.714;2022-09-30T00:06:26;12.70;;;8.95;;
56391;SDS011;42289;53.582;9.714;2022-09-30T00:08:54;14.15;;;9.05;;
56391;SDS011;42289;53.582;9.714;2022-09-30T00:11:22;13.20;;;9.23;;
56391;SDS011;42289;53.582;9.714;2022-09-30T00:13:52;13.60;;;9.55;;
56391;SDS011;42289;53.582;9.714;2022-09-30T00:16:19;11.70;;;8.70;;
56391;SDS011;42289;53.582;9.714;2022-09-30T00:18:47;13.05;;;8.82;;
56391;SDS011;42289;53.582;9.714;2022-09-30T00:21:15;13.13;;;9.07;;
56391;SDS011;42289;53.582;9.714;2022-09-30T00:23:42;16.65;;;8.82;;
56391;SDS011;42289;53.582;9.714;2022-09-30T00:26:10;15.25;;;9.45;;
56391;SDS011;42289;53.582;9.714;2022-09-30T00:28:38;12.52;;;9.07;;
56391;SDS011;42289;53.582;9.714;2022-09-30T00:31:07;12.48;;;8.90;;
56391;SDS011;42289;53.582;9.714;2022-09-30T00:33:36;12.93;;;9.32;;
56391;SDS011;42289;53.582;9.714;2022-09-30T00:36:02;14.07;;;9.50;;
56391;SDS011;42289;53.582;9.714;2022-09-30T00:38:29;14.13;;;9.73;;
56391;SDS011;42289;53.582;9.714;2022-09-30T00:40:56;15.68;;;10.30;;
56391;SDS011;42289;53.582;9.714;2022-09-30T00:43:37;13.18;;;9.63;;
56391;SDS011;42289;53.582;9.714;2022-09-30T00:46:08;15.68;;;10.20;;
56391;SDS011;42289;53.582;9.714;2022-09-30T00:48:42;13.85;;;9.90;;
56391;SDS011;42289;53.582;9.714;2022-09-30T00:51:10;15.27;;;10.40;;
56391;SDS011;42289;53.582;9.714;2022-09-30T00:53:38;14.13;;;9.95;;
56391;SDS011;42289;53.582;9.714;2022-09-30T00:56:11;14.23;;;9.88;;
56391;SDS011;42289;53.582;9.714;2022-09-30T00:58:42;16.30;;;10.30;;
56391;SDS011;42289;53.582;9.714;2022-09-30T01:01:13;13.95;;;10.02;;
56391;SDS011;42289;53.582;9.714;2022-09-30T01:03:41;17.00;;;10.85;;
56391;SDS011;42289;53.582;9.714;2022-09-30T01:06:10;15.48;;;10.50;;
56391;SDS011;42289;53.582;9.714;2022-09-30T01:08:37;16.25;;;10.88;;
56391;SDS011;42289;53.582;9.714;2022-09-30T01:11:05;17.63;;;11.38;;
56391;SDS011;42289;53.582;9.714;2022-09-30T01:13:31;19.10;;;12.35;;
56391;SDS011;42289;53.582;9.714;2022-09-30T01:16:05;18.20;;;12.73;;
56391;SDS011;42289;53.582;9.714;2022-09-30T01:18:49;17.05;;;12.02;;
56391;SDS011;42289;53.582;9.714;2022-09-30T01:21:29;21.33;;;11.93;;
56391;SDS011;42289;53.582;9.714;2022-09-30T01:24:11;21.52;;;13.07;;
56391;SDS011;42289;53.582;9.714;2022-09-30T01:32:47;20.88;;;13.38;;
56391;SDS011;42289;53.582;9.714;2022-09-30T01:35:31;21.10;;;13.73;;
56391;SDS011;42289;53.582;9.714;2022-09-30T01:38:08;19.98;;;13.52;;
56391;SDS011;42289;53.582;9.714;2022-09-30T01:40:42;20.40;;;13.88;;
56391;SDS011;42289;53.582;9.714;2022-09-30T01:43:17;22.73;;;14.48;;
56391;SDS011;42289;53.582;9.714;2022-09-30T01:45:53;19.75;;;13.75;;
56391;SDS011;42289;53.582;9.714;2022-09-30T01:48:25;20.25;;;13.90;;
56391;SDS011;42289;53.582;9.714;2022-09-30T01:50:57;21.87;;;14.17;;
56391;SDS011;42289;53.582;9.714;2022-09-30T01:53:29;20.58;;;14.30;;
56391;SDS011;42289;53.582;9.714;2022-09-30T01:56:10;20.00;;;14.65;;
56391;SDS011;42289;53.582;9.714;2022-09-30T01:58:44;23.00;;;14.52;;
56391;SDS011;42289;53.582;9.714;2022-09-30T02:01:19;22.42;;;14.30;;
56391;SDS011;42289;53.582;9.714;2022-09-30T02:03:52;20.88;;;14.57;;
56391;SDS011;42289;53.582;9.714;2022-09-30T02:06:22;21.30;;;13.82;;
56391;SDS011;42289;53.582;9.714;2022-09-30T02:08:53;20.17;;;13.02;;
56391;SDS011;42289;53.582;9.714;2022-09-30T02:11:24;18.08;;;13.35;;
56391;SDS011;42289;53.582;9.714;2022-09-30T02:13:55;19.02;;;13.15;;
56391;SDS011;42289;53.582;9.714;2022-09-30T02:16:28;17.80;;;12.50;;
56391;SDS011;42289;53.582;9.714;2022-09-30T02:19:15;17.42;;;12.50;;
56391;SDS011;42289;53.582;9.714;2022-09-30T02:21:45;21.42;;;13.38;;
56391;SDS011;42289;53.582;9.714;2022-09-30T02:24:20;21.23;;;13.70;;
56391;SDS011;42289;53.582;9.714;2022-09-30T02:26:50;19.45;;;13.93;;
56391;SDS011;42289;53.582;9.714;2022-09-30T02:29:22;21.30;;;14.45;;
56391;SDS011;42289;53.582;9.714;2022-09-30T02:31:52;22.25;;;15.38;;
56391;SDS011;42289;53.582;9.714;2022-09-30T02:34:23;22.50;;;15.13;;
56391;SDS011;42289;53.582;9.714;2022-09-30T02:36:54;24.63;;;16.50;;
56391;SDS011;42289;53.582;9.714;2022-09-30T02:39:25;22.33;;;15.27;;
56391;SDS011;42289;53.582;9.714;2022-09-30T02:41:59;25.00;;;15.88;;
56391;SDS011;42289;53.582;9.714;2022-09-30T02:44:33;23.15;;;15.82;;
56391;SDS011;42289;53.582;9.714;2022-09-30T02:47:01;25.80;;;16.40;;
56391;SDS011;42289;53.582;9.714;2022-09-30T02:49:38;23.25;;;15.57;;
56391;SDS011;42289;53.582;9.714;2022-09-30T02:52:09;25.10;;;16.50;;
56391;SDS011;42289;53.582;9.714;2022-09-30T02:54:45;25.50;;;16.08;;
56391;SDS011;42289;53.582;9.714;2022-09-30T02:57:18;26.88;;;16.83;;
56391;SDS011;42289;53.582;9.714;2022-09-30T02:59:54;26.35;;;17.38;;
56391;SDS011;42289;53.582;9.714;2022-09-30T03:02:20;27.48;;;16.98;;
56391;SDS011;42289;53.582;9.714;2022-09-30T03:04:49;23.85;;;17.15;;
56391;SDS011;42289;53.582;9.714;2022-09-30T03:07:16;25.20;;;16.90;;
56391;SDS011;42289;53.582;9.714;2022-09-30T03:09:43;27.90;;;17.85;;
56391;SDS011;42289;53.582;9.714;2022-09-30T03:12:10;27.60;;;17.02;;
56391;SDS011;42289;53.582;9.714;2022-09-30T03:14:51;25.80;;;17.58;;
56391;SDS011;42289;53.582;9.714;2022-09-30T03:17:44;23.25;;;15.73;;
56391;SDS011;42289;53.582;9.714;2022-09-30T03:20:29;26.88;;;16.45;;
56391;SDS011;42289;53.582;9.714;2022-09-30T03:23:09;24.90;;;16.38;;
56391;SDS011;42289;53.582;9.714;2022-09-30T03:25:46;24.65;;;16.35;;
56391;SDS011;42289;53.582;9.714;2022-09-30T03:28:22;25.23;;;16.45;;
56391;SDS011;42289;53.582;9.714;2022-09-30T03:30:54;24.15;;;16.42;;
56391;SDS011;42289;53.582;9.714;2022-09-30T03:33:30;25.08;;;17.27;;
56391;SDS011;42289;53.582;9.714;2022-09-30T03:36:05;24.63;;;17.25;;
56391;SDS011;42289;53.582;9.714;2022-09-30T03:38:42;25.02;;;17.13;;
56391;SDS011;42289;53.582;9.714;2022-09-30T03:41:15;27.50;;;17.75;;
56391;SDS011;42289;53.582;9.714;2022-09-30T03:43:48;26.17;;;17.58;;
56391;SDS011;42289;53.582;9.714;2022-09-30T03:46:20;25.50;;;17.52;;
56391;SDS011;42289;53.582;9.714;2022-09-30T03:48:50;26.90;;;17.80;;
56391;SDS011;42289;53.582;9.714;2022-09-30T03:51:22;28.80;;;17.77;;
56391;SDS011;42289;53.582;9.714;2022-09-30T03:53:49;25.63;;;17.48;;
56391;SDS011;42289;53.582;9.714;2022-09-30T03:56:23;25.92;;;17.30;;
56391;SDS011;42289;53.582;9.714;2022-09-30T03:58:50;28.65;;;18.27;;
56391;SDS011;42289;53.582;9.714;2022-09-30T04:01:17;25.90;;;18.08;;
56391;SDS011;42289;53.582;9.714;2022-09-30T04:03:45;31.20;;;20.52;;
56391;SDS011;42289;53.582;9.714;2022-09-30T04:06:12;28.70;;;19.20;;
56391;SDS011;42289;53.582;9.714;2022-09-30T04:08:40;27.67;;;18.92;;
56391;SDS011;42289;53.582;9.714;2022-09-30T04:11:07;28.40;;;18.52;;
56391;SDS011;42289;53.582;9.714;2022-09-30T04:13:34;27.60;;;18.90;;
56391;SDS011;42289;53.582;9.714;2022-09-30T04:16:00;27.83;;;18.55;;
56391;SDS011;42289;53.582;9.714;2022-09-30T04:18:27;26.02;;;18.13;;
56391;SDS011;42289;53.582;9.714;2022-09-30T04:20:54;28.73;;;19.58;;
56391;SDS011;42289;53.582;9.714;2022-09-30T04:23:21;29.58;;;18.35;;
56391;SDS011;42289;53.582;9.714;2022-09-30T04:25:52;27.00;;;18.65;;
56391;SDS011;42289;53.582;9.714;2022-09-30T04:28:19;28.70;;;18.83;;
56391;SDS011;42289;53.582;9.714;2022-09-30T04:30:45;25.85;;;18.05;;
56391;SDS011;42289;53.582;9.714;2022-09-30T04:33:11;27.48;;;17.42;;
56391;SDS011;42289;53.582;9.714;2022-09-30T04:35:38;25.88;;;17.92;;
56391;SDS011;42289;53.582;9.714;2022-09-30T04:38:04;24.60;;;17.20;;
56391;SDS011;42289;53.582;9.714;2022-09-30T04:40:31;23.75;;;16.80;;
56391;SDS011;42289;53.582;9.714;2022-09-30T04:43:02;26.77;;;17.63;;
56391;SDS011;42289;53.582;9.714;2022-09-30T04:45:28;24.63;;;16.15;;
56391;SDS011;42289;53.582;9.714;2022-09-30T04:47:55;26.08;;;17.63;;
56391;SDS011;42289;53.582;9.714;2022-09-30T04:50:21;26.92;;;16.83;;
56391;SDS011;42289;53.582;9.714;2022-09-30T04:52:48;26.85;;;17.45;;
56391;SDS011;42289;53.582;9.714;2022-09-30T04:55:14;24.42;;;16.67;;
56391;SDS011;42289;53.582;9.714;2022-09-30T04:57:42;25.60;;;16.50;;
56391;SDS011;42289;53.582;9.714;2022-09-30T05:00:11;24.20;;;16.92;;
56391;SDS011;42289;53.582;9.714;2022-09-30T05:02:38;25.05;;;17.50;;
56391;SDS011;42289;53.582;9.714;2022-09-30T05:05:04;28.45;;;18.20;;
56391;SDS011;42289;53.582;9.714;2022-09-30T05:07:32;29.50;;;18.75;;
56391;SDS011;42289;53.582;9.714;2022-09-30T05:09:58;27.27;;;17.75;;
56391;SDS011;42289;53.582;9.714;2022-09-30T05:12:24;32.33;;;18.02;;
56391;SDS011;42289;53.582;9.714;2022-09-30T05:14:51;26.55;;;17.05;;
56391;SDS011;42289;53.582;9.714;2022-09-30T05:17:19;26.40;;;17.05;;
56391;SDS011;42289;53.582;9.714;2022-09-30T05:19:46;28.08;;;18.15;;
56391;SDS011;42289;53.582;9.714;2022-09-30T05:22:12;25.58;;;17.38;;
56391;SDS011;42289;53.582;9.714;2022-09-30T05:24:39;25.35;;;17.63;;
56391;SDS011;42289;53.582;9.714;2022-09-30T05:27:05;30.05;;;18.05;;
56391;SDS011;42289;53.582;9.714;2022-09-30T05:29:32;25.27;;;17.65;;
56391;SDS011;42289;53.582;9.714;2022-09-30T05:31:58;27.17;;;18.85;;
56391;SDS011;42289;53.582;9.714;2022-09-30T05:34:26;31.33;;;19.00;;
56391;SDS011;42289;53.582;9.714;2022-09-30T05:36:52;30.77;;;18.83;;
56391;SDS011;42289;53.582;9.714;2022-09-30T05:39:19;26.40;;;18.52;;
56391;SDS011;42289;53.582;9.714;2022-09-30T05:41:45;27.33;;;18.10;;
56391;SDS011;42289;53.582;9.714;2022-09-30T05:44:12;28.55;;;18.48;;
56391;SDS011;42289;53.582;9.714;2022-09-30T05:46:38;27.65;;;18.05;;
56391;SDS011;42289;53.582;9.714;2022-09-30T05:49:04;25.55;;;17.77;;
56391;SDS011;42289;53.582;9.714;2022-09-30T05:51:32;27.80;;;18.45;;
56391;SDS011;42289;53.582;9.714;2022-09-30T05:53:58;28.70;;;18.83;;
56391;SDS011;42289;53.582;9.714;2022-09-30T05:56:25;27.42;;;18.23;;
56391;SDS011;42289;53.582;9.714;2022-09-30T05:58:51;26.65;;;17.92;;
56391;SDS011;42289;53.582;9.714;2022-09-30T06:01:18;29.90;;;18.80;;
56391;SDS011;42289;53.582;9.714;2022-09-30T06:03:44;27.17;;;19.25;;
56391;SDS011;42289;53.582;9.714;2022-09-30T06:06:12;28.02;;;19.65;;
56391;SDS011;42289;53.582;9.714;2022-09-30T06:08:41;26.98;;;19.27;;
56391;SDS011;42289;53.582;9.714;2022-09-30T06:11:08;27.13;;;18.67;;
56391;SDS011;42289;53.582;9.714;2022-09-30T06:13:36;27.67;;;18.33;;
56391;SDS011;42289;53.582;9.714;2022-09-30T06:16:03;25.15;;;17.40;;
56391;SDS011;42289;53.582;9.714;2022-09-30T06:18:31;25.35;;;17.80;;
56391;SDS011;42289;53.582;9.714;2022-09-30T06:20:58;26.15;;;17.83;;
56391;SDS011;42289;53.582;9.714;2022-09-30T06:23:25;25.85;;;18.50;;
56391;SDS011;42289;53.582;9.714;2022-09-30T06:25:53;24.80;;;17.58;;
56391;SDS011;42289;53.582;9.714;2022-09-30T06:28:20;27.73;;;19.05;;
56391;SDS011;42289;53.582;9.714;2022-09-30T06:30:47;27.20;;;17.08;;
56391;SDS011;42289;53.582;9.714;2022-09-30T06:33:14;25.98;;;18.40;;
56391;SDS011;42289;53.582;9.714;2022-09-30T06:35:41;24.10;;;17.50;;
56391;SDS011;42289;53.582;9.714;2022-09-30T06:38:08;28.85;;;18.80;;
56391;SDS011;42289;53.582;9.714;2022-09-30T06:40:35;26.85;;;18.25;;
56391;SDS011;42289;53.582;9.714;2022-09-30T06:43:03;26.45;;;18.25;;
56391;SDS011;42289;53.582;9.714;2022-09-30T06:45:30;23.77;;;17.13;;
56391;SDS011;42289;53.582;9.714;2022-09-30T06:47:59;27.38;;;18.20;;
56391;SDS011;42289;53.582;9.714;2022-09-30T06:50:27;27.67;;;17.90;;
56391;SDS011;42289;53.582;9.714;2022-09-30T06:52:55;25.98;;;18.13;;
56391;SDS011;42289;53.582;9.714;2022-09-30T06:55:23;26.10;;;17.73;;
56391;SDS011;42289;53.582;9.714;2022-09-30T06:57:51;27.38;;;17.30;;
56391;SDS011;42289;53.582;9.714;2022-09-30T07:00:19;28.70;;;17.63;;
56391;SDS011;42289;53.582;9.714;2022-09-30T07:02:45;25.52;;;17.05;;
56391;SDS011;42289;53.582;9.714;2022-09-30T07:05:12;26.58;;;18.58;;
56391;SDS011;42289;53.582;9.714;2022-09-30T07:07:39;25.67;;;17.42;;
56391;SDS011;42289;53.582;9.714;2022-09-30T07:10:06;23.60;;;16.45;;
56391;SDS011;42289;53.582;9.714;2022-09-30T07:12:33;23.90;;;16.58;;
56391;SDS011;42289;53.582;9.714;2022-09-30T07:15:00;23.80;;;17.02;;
56391;SDS011;42289;53.582;9.714;2022-09-30T07:17:28;23.83;;;16.70;;
56391;SDS011;42289;53.582;9.714;2022-09-30T07:19:54;22.85;;;16.17;;
56391;SDS011;42289;53.582;9.714;2022-09-30T07:22:22;21.35;;;16.17;;
56391;SDS011;42289;53.582;9.714;2022-09-30T07:24:54;22.27;;;15.65;;
56391;SDS011;42289;53.582;9.714;2022-09-30T07:27:21;22.00;;;15.80;;
56391;SDS011;42289;53.582;9.714;2022-09-30T07:29:47;22.08;;;15.82;;
56391;SDS011;42289;53.582;9.714;2022-09-30T07:32:13;25.08;;;16.45;;
56391;SDS011;42289;53.582;9.714;2022-09-30T07:34:42;21.77;;;15.90;;
56391;SDS011;42289;53.582;9.714;2022-09-30T07:37:09;21.63;;;16.10;;
56391;SDS011;42289;53.582;9.714;2022-09-30T07:39:38;22.98;;;15.90;;
56391;SDS011;42289;53.582;9.714;2022-09-30T07:42:05;21.48;;;15.73;;
56391;SDS011;42289;53.582;9.714;2022-09-30T07:44:32;20.55;;;15.25;;
56391;SDS011;42289;53.582;9.714;2022-09-30T07:47:02;22.45;;;15.18;;
56391;SDS011;42289;53.582;9.714;2022-09-30T07:49:29;21.23;;;15.60;;
56391;SDS011;42289;53.582;9.714;2022-09-30T07:51:57;20.63;;;14.60;;
56391;SDS011;42289;53.582;9.714;2022-09-30T07:54:25;23.05;;;15.55;;
56391;SDS011;42289;53.582;9.714;2022-09-30T07:56:53;21.15;;;14.93;;
56391;SDS011;42289;53.582;9.714;2022-09-30T07:59:21;19.38;;;14.45;;
56391;SDS011;42289;53.582;9.714;2022-09-30T08:01:49;20.35;;;14.65;;
56391;SDS011;42289;53.582;9.714;2022-09-30T08:04:16;19.88;;;14.10;;
56391;SDS011;42289;53.582;9.714;2022-09-30T08:06:44;23.17;;;14.88;;
56391;SDS011;42289;53.582;9.714;2022-09-30T08:09:15;20.52;;;13.75;;
56391;SDS011;42289;53.582;9.714;2022-09-30T08:11:44;20.70;;;13.90;;
56391;SDS011;42289;53.582;9.714;2022-09-30T08:14:12;17.42;;;13.25;;
56391;SDS011;42289;53.582;9.714;2022-09-30T08:16:39;18.05;;;12.70;;
56391;SDS011;42289;53.582;9.714;2022-09-30T08:19:06;19.55;;;12.50;;
56391;SDS011;42289;53.582;9.714;2022-09-30T08:21:33;19.98;;;12.43;;
56391;SDS011;42289;53.582;9.714;2022-09-30T08:23:59;20.17;;;12.73;;
56391;SDS011;42289;53.582;9.714;2022-09-30T08:26:30;16.95;;;12.20;;
56391;SDS011;42289;53.582;9.714;2022-09-30T08:28:57;20.08;;;11.75;;
56391;SDS011;42289;53.582;9.714;2022-09-30T08:31:23;17.42;;;11.25;;
56391;SDS011;42289;53.582;9.714;2022-09-30T08:33:50;15.13;;;10.80;;
56391;SDS011;42289;53.582;9.714;2022-09-30T08:36:17;14.32;;;9.75;;
56391;SDS011;42289;53.582;9.714;2022-09-30T08:38:45;15.60;;;10.02;;
56391;SDS011;42289;53.582;9.714;2022-09-30T08:41:16;14.57;;;9.98;;
56391;SDS011;42289;53.582;9.714;2022-09-30T08:43:59;16.23;;;10.23;;
56391;SDS011;42289;53.582;9.714;2022-09-30T08:46:37;14.20;;;9.43;;
56391;SDS011;42289;53.582;9.714;2022-09-30T08:49:15;12.25;;;8.68;;
56391;SDS011;42289;53.582;9.714;2022-09-30T08:51:52;13.63;;;9.20;;
56391;SDS011;42289;53.582;9.714;2022-09-30T08:54:21;12.65;;;8.82;;
56391;SDS011;42289;53.582;9.714;2022-09-30T08:56:51;12.98;;;9.30;;
56391;SDS011;42289;53.582;9.714;2022-09-30T08:59:23;12.05;;;8.55;;
56391;SDS011;42289;53.582;9.714;2022-09-30T09:01:57;15.68;;;8.63;;
56391;SDS011;42289;53.582;9.714;2022-09-30T09:04:28;12.38;;;8.35;;
56391;SDS011;42289;53.582;9.714;2022-09-30T09:06:55;12.77;;;8.20;;
56391;SDS011;42289;53.582;9.714;2022-09-30T09:09:33;13.05;;;7.97;;
56391;SDS011;42289;53.582;9.714;2022-09-30T09:12:11;11.95;;;8.02;;
56391;SDS011;42289;53.582;9.714;2022-09-30T09:14:51;13.55;;;8.18;;
56391;SDS011;42289;53.582;9.714;2022-09-30T09:17:31;10.55;;;7.53;;
56391;SDS011;42289;53.582;9.714;2022-09-30T09:20:08;11.35;;;7.40;;
56391;SDS011;42289;53.582;9.714;2022-09-30T09:22:39;10.93;;;7.60;;
56391;SDS011;42289;53.582;9.714;2022-09-30T09:25:10;11.73;;;7.10;;
56391;SDS011;42289;53.582;9.714;2022-09-30T09:27:42;9.68;;;6.28;;
56391;SDS011;42289;53.582;9.714;2022-09-30T09:30:16;9.23;;;7.03;;
56391;SDS011;42289;53.582;9.714;2022-09-30T09:32:46;9.38;;;6.03;;
56391;SDS011;42289;53.582;9.714;2022-09-30T09:35:19;9.95;;;6.10;;
56391;SDS011;42289;53.582;9.714;2022-09-30T09:37:55;7.70;;;5.47;;
56391;SDS011;42289;53.582;9.714;2022-09-30T09:40:48;9.88;;;6.30;;
56391;SDS011;42289;53.582;9.714;2022-09-30T09:43:27;10.40;;;6.05;;
56391;SDS011;42289;53.582;9.714;2022-09-30T09:46:11;9.23;;;6.05;;
56391;SDS011;42289;53.582;9.714;2022-09-30T09:48:44;11.27;;;6.43;;
56391;SDS011;42289;53.582;9.714;2022-09-30T09:51:12;10.27;;;6.18;;
56391;SDS011;42289;53.582;9.714;2022-09-30T09:53:49;11.75;;;6.45;;
56391;SDS011;42289;53.582;9.714;2022-09-30T09:56:18;8.32;;;5.78;;
56391;SDS011;42289;53.582;9.714;2022-09-30T09:59:05;11.23;;;6.30;;
56391;SDS011;42289;53.582;9.714;2022-09-30T10:01:35;8.52;;;5.43;;
56391;SDS011;42289;53.582;9.714;2022-09-30T10:04:07;7.97;;;5.32;;
56391;SDS011;42289;53.582;9.714;2022-09-30T10:06:44;8.35;;;5.00;;
56391;SDS011;42289;53.582;9.714;2022-09-30T10:09:23;9.77;;;5.22;;
56391;SDS011;42289;53.582;9.714;2022-09-30T10:12:16;7.45;;;4.55;;
56391;SDS011;42289;53.582;9.714;2022-09-30T10:14:54;8.50;;;4.15;;
56391;SDS011;42289;53.582;9.714;2022-09-30T10:17:26;8.68;;;4.15;;
56391;SDS011;42289;53.582;9.714;2022-09-30T10:19:56;8.23;;;4.25;;
56391;SDS011;42289;53.582;9.714;2022-09-30T10:22:26;5.78;;;3.50;;
56391;SDS011;42289;53.582;9.714;2022-09-30T10:25:07;6.03;;;3.08;;
56391;SDS011;42289;53.582;9.714;2022-09-30T10:27:45;6.45;;;3.38;;
56391;SDS011;42289;53.582;9.714;2022-09-30T10:30:27;6.57;;;3.28;;
56391;SDS011;42289;53.582;9.714;2022-09-30T10:32:57;8.00;;;3.55;;
56391;SDS011;42289;53.582;9.714;2022-09-30T10:35:27;6.82;;;3.90;;
56391;SDS011;42289;53.582;9.714;2022-09-30T10:37:54;5.82;;;3.60;;
56391;SDS011;42289;53.582;9.714;2022-09-30T10:40:25;4.72;;;3.30;;
56391;SDS011;42289;53.582;9.714;2022-09-30T10:42:53;6.68;;;3.50;;
56391;SDS011;42289;53.582;9.714;2022-09-30T10:45:21;6.00;;;3.38;;
56391;SDS011;42289;53.582;9.714;2022-09-30T10:47:51;4.32;;;2.75;;
56391;SDS011;42289;53.582;9.714;2022-09-30T10:50:22;4.72;;;3.03;;
56391;SDS011;42289;53.582;9.714;2022-09-30T10:52:52;6.18;;;2.92;;
56391;SDS011;42289;53.582;9.714;2022-09-30T10:55:25;5.00;;;3.25;;
56391;SDS011;42289;53.582;9.714;2022-09-30T10:57:54;5.10;;;3.00;;
56391;SDS011;42289;53.582;9.714;2022-09-30T11:00:25;4.72;;;2.65;;
56391;SDS011;42289;53.582;9.714;2022-09-30T11:02:54;5.20;;;2.67;;
56391;SDS011;42289;53.582;9.714;2022-09-30T11:05:26;6.40;;;2.55;;
56391;SDS011;42289;53.582;9.714;2022-09-30T11:07:56;4.45;;;2.17;;
56391;SDS011;42289;53.582;9.714;2022-09-30T11:10:32;5.40;;;2.13;;
56391;SDS011;42289;53.582;9.714;2022-09-30T11:13:06;4.07;;;1.90;;
56391;SDS011;42289;53.582;9.714;2022-09-30T11:15:40;3.75;;;1.80;;
56391;SDS011;42289;53.582;9.714;2022-09-30T11:18:15;3.08;;;1.63;;
56391;SDS011;42289;53.582;9.714;2022-09-30T11:20:51;3.28;;;1.50;;
56391;SDS011;42289;53.582;9.714;2022-09-30T11:23:24;4.72;;;1.83;;
56391;SDS011;42289;53.582;9.714;2022-09-30T11:28:35;6.18;;;1.92;;
56391;SDS011;42289;53.582;9.714;2022-09-30T11:31:15;4.50;;;1.60;;
56391;SDS011;42289;53.582;9.714;2022-09-30T11:33:51;8.98;;;1.90;;
56391;SDS011;42289;53.582;9.714;2022-09-30T11:36:38;4.30;;;1.40;;
56391;SDS011;42289;53.582;9.714;2022-09-30T11:39:20;2.88;;;1.30;;
56391;SDS011;42289;53.582;9.714;2022-09-30T11:42:07;2.75;;;1.33;;
56391;SDS011;42289;53.582;9.714;2022-09-30T11:44:39;2.78;;;1.50;;
56391;SDS011;42289;53.582;9.714;2022-09-30T11:47:17;3.97;;;1.80;;
56391;SDS011;42289;53.582;9.714;2022-09-30T11:50:09;3.60;;;1.60;;
56391;SDS011;42289;53.582;9.714;2022-09-30T11:52:52;4.40;;;1.70;;
56391;SDS011;42289;53.582;9.714;2022-09-30T11:58:16;3.85;;;1.70;;
56391;SDS011;42289;53.582;9.714;2022-09-30T12:00:47;3.45;;;1.90;;
56391;SDS011;42289;53.582;9.714;2022-09-30T12:03:19;4.13;;;1.65;;
56391;SDS011;42289;53.582;9.714;2022-09-30T12:05:51;3.58;;;1.50;;
56391;SDS011;42289;53.582;9.714;2022-09-30T12:08:23;5.93;;;1.75;;
56391;SDS011;42289;53.582;9.714;2022-09-30T12:13:24;3.45;;;1.80;;
56391;SDS011;42289;53.582;9.714;2022-09-30T12:15:55;4.30;;;2.05;;
56391;SDS011;42289;53.582;9.714;2022-09-30T12:18:24;3.47;;;2.35;;
56391;SDS011;42289;53.582;9.714;2022-09-30T12:20:56;5.32;;;2.90;;
56391;SDS011;42289;53.582;9.714;2022-09-30T12:23:31;4.82;;;3.33;;
56391;SDS011;42289;53.582;9.714;2022-09-30T12:26:03;7.22;;;3.83;;
56391;SDS011;42289;53.582;9.714;2022-09-30T12:28:31;7.75;;;4.20;;
56391;SDS011;42289;53.582;9.714;2022-09-30T12:34:21;7.25;;;4.75;;
56391;SDS011;42289;53.582;9.714;2022-09-30T12:37:03;7.38;;;4.45;;
56391;SDS011;42289;53.582;9.714;2022-09-30T12:39:56;7.20;;;4.55;;
56391;SDS011;42289;53.582;9.714;2022-09-30T12:43:06;7.60;;;5.00;;
56391;SDS011;42289;53.582;9.714;2022-09-30T12:45:54;8.65;;;4.70;;
56391;SDS011;42289;53.582;9.714;2022-09-30T12:48:32;6.53;;;5.10;;
56391;SDS011;42289;53.582;9.714;2022-09-30T12:51:03;6.75;;;4.75;;
56391;SDS011;42289;53.582;9.714;2022-09-30T12:53:30;7.45;;;5.38;;
56391;SDS011;42289;53.582;9.714;2022-09-30T12:56:04;9.38;;;4.47;;
56391;SDS011;42289;53.582;9.714;2022-09-30T12:58:33;8.30;;;4.70;;
56391;SDS011;42289;53.582;9.714;2022-09-30T13:01:03;8.98;;;4.97;;
56391;SDS011;42289;53.582;9.714;2022-09-30T13:03:48;6.80;;;4.60;;
56391;SDS011;42289;53.582;9.714;2022-09-30T13:06:17;6.22;;;4.07;;
56391;SDS011;42289;53.582;9.714;2022-09-30T13:08:47;6.43;;;4.50;;
56391;SDS011;42289;53.582;9.714;2022-09-30T13:11:35;7.57;;;4.55;;
56391;SDS011;42289;53.582;9.714;2022-09-30T13:14:11;7.32;;;4.15;;
56391;SDS011;42289;53.582;9.714;2022-09-30T13:19:51;8.85;;;4.68;;
56391;SDS011;42289;53.582;9.714;2022-09-30T13:25:22;6.68;;;4.80;;
56391;SDS011;42289;53.582;9.714;2022-09-30T13:27:51;6.45;;;4.20;;
56391;SDS011;42289;53.582;9.714;2022-09-30T13:33:27;7.55;;;4.40;;
56391;SDS011;42289;53.582;9.714;2022-09-30T13:35:56;6.03;;;4.28;;
56391;SDS011;42289;53.582;9.714;2022-09-30T13:38:37;6.93;;;4.60;;
56391;SDS011;42289;53.582;9.714;2022-09-30T13:41:07;5.85;;;4.28;;
56391;SDS011;42289;53.582;9.714;2022-09-30T13:43:43;8.18;;;5.15;;
56391;SDS011;42289;53.582;9.714;2022-09-30T13:46:16;6.70;;;4.83;;
56391;SDS011;42289;53.582;9.714;2022-09-30T13:48:50;7.63;;;5.30;;
56391;SDS011;42289;53.582;9.714;2022-09-30T13:51:20;7.32;;;5.40;;
56391;SDS011;42289;53.582;9.714;2022-09-30T13:53:50;8.02;;;5.95;;
56391;SDS011;42289;53.582;9.714;2022-09-30T13:56:21;8.35;;;5.55;;
56391;SDS011;42289;53.582;9.714;2022-09-30T13:59:03;7.57;;;5.30;;
56391;SDS011;42289;53.582;9.714;2022-09-30T14:05:04;8.68;;;5.57;;
56391;SDS011;42289;53.582;9.714;2022-09-30T14:07:50;9.02;;;6.10;;
56391;SDS011;42289;53.582;9.714;2022-09-30T14:10:32;9.82;;;6.00;;
56391;SDS011;42289;53.582;9.714;2022-09-30T14:13:19;11.68;;;5.95;;
56391;SDS011;42289;53.582;9.714;2022-09-30T14:16:05;9.68;;;6.63;;
56391;SDS011;42289;53.582;9.714;2022-09-30T14:21:38;9.98;;;7.03;;
56391;SDS011;42289;53.582;9.714;2022-09-30T14:24:09;10.52;;;6.88;;
56391;SDS011;42289;53.582;9.714;2022-09-30T14:26:42;8.85;;;6.07;;
56391;SDS011;42289;53.582;9.714;2022-09-30T14:29:20;9.90;;;5.95;;
56391;SDS011;42289;53.582;9.714;2022-09-30T14:31:55;8.18;;;6.05;;
56391;SDS011;42289;53.582;9.714;2022-09-30T14:34:23;12.70;;;6.10;;
56391;SDS011;42289;53.582;9.714;2022-09-30T14:36:53;8.43;;;5.85;;
56391;SDS011;42289;53.582;9.714;2022-09-30T14:39:20;8.70;;;5.13;;
56391;SDS011;42289;53.582;9.714;2022-09-30T14:41:52;10.35;;;5.47;;
56391;SDS011;42289;53.582;9.714;2022-09-30T14:44:21;9.63;;;6.43;;
56391;SDS011;42289;53.582;9.714;2022-09-30T14:46:49;9.45;;;6.35;;
56391;SDS011;42289;53.582;9.714;2022-09-30T14:49:25;8.95;;;6.03;;
56391;SDS011;42289;53.582;9.714;2022-09-30T14:51:56;8.73;;;6.10;;
56391;SDS011;42289;53.582;9.714;2022-09-30T14:54:27;11.10;;;6.80;;
56391;SDS011;42289;53.582;9.714;2022-09-30T14:56:55;9.65;;;6.28;;
56391;SDS011;42289;53.582;9.714;2022-09-30T14:59:23;8.70;;;5.78;;
56391;SDS011;42289;53.582;9.714;2022-09-30T15:01:52;9.90;;;5.70;;
56391;SDS011;42289;53.582;9.714;2022-09-30T15:04:26;10.10;;;6.53;;
56391;SDS011;42289;53.582;9.714;2022-09-30T15:06:55;9.38;;;6.55;;
56391;SDS011;42289;53.582;9.714;2022-09-30T15:09:26;9.27;;;6.35;;
56391;SDS011;42289;53.582;9.714;2022-09-30T15:11:56;11.85;;;6.70;;
56391;SDS011;42289;53.582;9.714;2022-09-30T15:14:28;10.18;;;6.93;;
56391;SDS011;42289;53.582;9.714;2022-09-30T15:16:57;10.65;;;6.95;;
56391;SDS011;42289;53.582;9.714;2022-09-30T15:19:26;9.75;;;6.10;;
56391;SDS011;42289;53.582;9.714;2022-09-30T15:21:55;8.98;;;6.40;;
56391;SDS011;42289;53.582;9.714;2022-09-30T15:24:26;9.48;;;6.50;;
56391;SDS011;42289;53.582;9.714;2022-09-30T15:26:55;12.95;;;6.65;;
56391;SDS011;42289;53.582;9.714;2022-09-30T15:29:22;11.50;;;7.22;;